KDMA/DMA METAR and TAF weather

Enter ICAO airport designator
Station Type Date Time Source
KDMA METAR 2018/04/19 12:58 UTC NOAA

KDMA 191258Z AUTO 16005KT 10SM BKN180 13/M11 A2994 RMK AO2 SLP107 T01301108 $


Station Type Date Time Source
KDMA Decoded METAR 2018/04/19 12:58 UTC NOAA

Davis-Monthan Air Force Base, AZ, United States (KDMA) 32-10N 110-53W
Apr 19, 2018 - 08:58 AM EDT / 2018.04.19 1258 UTC
Wind: from the SSE (160 degrees) at 6 MPH (5 KT):0
Visibility: 10 mile(s):0
Sky conditions: mostly cloudy
Temperature: 55.4 F (13.0 C)
Dew Point: 12.6 F (-10.8 C)
Relative Humidity: 17%
Pressure (altimeter): 29.94 in. Hg (1013 hPa)
ob: KDMA 191258Z AUTO 16005KT 10SM BKN180 13/M11 A2994 RMK AO2 SLP107 T01301108
cycle: 13

Station Type Date Time Source
KDMA TAF 2018/04/19 06:12 UTC NOAA

TAF KDMA 190601Z 1906/2012 VRB06KT 9999 SCT006 QNH2992INS
BECMG 1917/1918 19012KT 9999 SCT006 QNH2990INS
BECMG 1918/1919 22015G25KT 9999 FEW200 520009 QNH2996INS
TEMPO 1921/1924 22020G30KT
BECMG 2002/2003 24010G15KT 9999 SCT005 QNH2981INS
BECMG 2006/2007 VRB06KT 9999 SCT006 QNH2988INS TX32/1921Z TN08/1912Z


Example: see airport list